Terminal Aerodrome Forecast
Issued by NWS

Home | Current Version | Previous Version | Text Only | Print | Product List | Glossary On
Versions: 1 2 3 4 5 6 7 8 9 10 11 12 13 14 15 16 17 18 19 20
000
FTUS41 KBTV 281129
TAFMPV
TAF
KMPV 281129Z 2812/2912 VRB03KT P6SM VCSH BKN100
     FM281400 18007KT P6SM SCT100
     FM281900 22010KT P6SM VCSH BKN050
      TEMPO 2821/2901 3SM SHRA BR BKN025
     FM290200 22006KT P6SM BKN040=

USA.gov is the U.S. government's official web portal to all federal, state and local government web resources and services.